createdAt,value
2023-05-09T00:00:41.467Z,1016.14
2023-05-09T00:02:36.983Z,1016.14
2023-05-09T00:04:36.336Z,1016.05
2023-05-09T00:06:36.439Z,1016.05
2023-05-09T00:08:36.095Z,1016.06
2023-05-09T00:10:36.815Z,1016.06
2023-05-09T00:12:36.410Z,1016.1
2023-05-09T00:14:36.036Z,1016.1
2023-05-09T00:16:36.134Z,1016.1
2023-05-09T00:18:36.620Z,1016.1
2023-05-09T00:20:36.364Z,1016.03
2023-05-09T00:22:36.825Z,1016.03
2023-05-09T00:24:36.459Z,1016.06
2023-05-09T00:26:36.072Z,1016.06
2023-05-09T00:28:36.578Z,1015.97
2023-05-09T00:30:36.551Z,1015.97
2023-05-09T00:32:36.597Z,1015.87
2023-05-09T00:34:36.627Z,1015.87
2023-05-09T00:36:36.274Z,1015.82
2023-05-09T00:38:36.873Z,1015.82
2023-05-09T00:40:36.606Z,1015.64
2023-05-09T00:42:36.083Z,1015.64
2023-05-09T00:44:36.593Z,1015.74
2023-05-09T00:46:36.467Z,1015.74
2023-05-09T00:48:35.954Z,1015.72
2023-05-09T00:50:36.756Z,1015.72
2023-05-09T00:52:36.221Z,1015.58
2023-05-09T00:54:36.898Z,1015.61
2023-05-09T00:56:36.551Z,1015.61
2023-05-09T00:58:36.021Z,1015.45
2023-05-09T01:00:37.748Z,1015.45
2023-05-09T01:02:36.552Z,1015.41
2023-05-09T01:04:36.824Z,1015.41
2023-05-09T01:06:36.361Z,1015.39
2023-05-09T01:08:36.041Z,1015.39
2023-05-09T01:10:36.788Z,1015.19
2023-05-09T01:12:36.282Z,1015.19
2023-05-09T01:14:35.996Z,1015.16
2023-05-09T01:16:36.722Z,1015.16
2023-05-09T01:18:36.312Z,1015.16
2023-05-09T01:20:37.119Z,1015.16
2023-05-09T01:22:36.291Z,1015.22
2023-05-09T01:24:35.878Z,1015.22
2023-05-09T01:26:36.462Z,1015.12
2023-05-09T01:28:36.085Z,1015.12
2023-05-09T01:30:37.037Z,1015.09
2023-05-09T01:32:36.585Z,1015.09
2023-05-09T01:34:35.968Z,1015.03
2023-05-09T01:36:36.752Z,1015.03
2023-05-09T01:38:36.466Z,1014.9
2023-05-09T01:40:36.344Z,1014.9
2023-05-09T01:42:36.842Z,1014.9
2023-05-09T01:44:36.529Z,1014.9
2023-05-09T01:46:36.058Z,1014.9
2023-05-09T01:48:36.760Z,1014.9
2023-05-09T01:50:36.382Z,1014.75
2023-05-09T01:52:35.909Z,1014.75
2023-05-09T01:54:36.519Z,1014.68
2023-05-09T01:56:36.127Z,1014.68
2023-05-09T01:58:36.549Z,1014.68
2023-05-09T02:00:40.360Z,1014.68
2023-05-09T02:02:36.824Z,1014.79
2023-05-09T02:04:36.224Z,1014.79
2023-05-09T02:06:36.073Z,1014.64
2023-05-09T02:08:36.875Z,1014.64
2023-05-09T02:10:36.508Z,1014.55
2023-05-09T02:12:35.953Z,1014.55
2023-05-09T02:14:36.645Z,1014.59
2023-05-09T02:16:36.570Z,1014.59
2023-05-09T02:18:36.118Z,1014.56
2023-05-09T02:20:36.762Z,1014.56
2023-05-09T02:22:36.141Z,1014.58
2023-05-09T02:24:36.631Z,1014.58
2023-05-09T02:26:36.217Z,1014.45
2023-05-09T02:28:36.755Z,1014.45
2023-05-09T02:30:36.450Z,1014.49
2023-05-09T02:32:36.314Z,1014.49
2023-05-09T02:34:36.536Z,1014.43
2023-05-09T02:36:36.303Z,1014.43
2023-05-09T02:38:36.764Z,1014.36
2023-05-09T02:40:36.473Z,1014.36
2023-05-09T02:42:35.865Z,1014.42
2023-05-09T02:44:36.538Z,1014.42
2023-05-09T02:46:36.585Z,1014.27
2023-05-09T02:48:36.824Z,1014.27
2023-05-09T02:52:36.165Z,1014.21
2023-05-09T02:54:36.734Z,1014.24
2023-05-09T02:56:36.449Z,1014.24
2023-05-09T02:58:48.907Z,1014.3
2023-05-09T03:00:39.996Z,1014.3
2023-05-09T03:02:36.273Z,1014.17
2023-05-09T03:04:36.863Z,1014.17
2023-05-09T03:06:36.463Z,1014.07
2023-05-09T03:08:35.953Z,1014.07
2023-05-09T03:10:36.887Z,1014.06
2023-05-09T03:12:36.410Z,1014.06
2023-05-09T03:14:36.091Z,1014.03
2023-05-09T03:16:36.802Z,1014.03
2023-05-09T03:18:36.200Z,1013.99
2023-05-09T03:20:39.035Z,1013.99
2023-05-09T03:22:36.278Z,1013.89
2023-05-09T03:24:36.089Z,1013.89
2023-05-09T03:26:36.762Z,1013.86
2023-05-09T03:28:36.445Z,1013.86
2023-05-09T03:30:36.116Z,1013.76
2023-05-09T03:32:38.347Z,1013.76
2023-05-09T03:34:36.094Z,1013.82
2023-05-09T03:36:36.753Z,1013.82
2023-05-09T03:38:36.268Z,1013.76
2023-05-09T03:40:36.097Z,1013.76
2023-05-09T03:42:36.654Z,1013.64
2023-05-09T03:44:36.385Z,1013.64
2023-05-09T03:46:36.147Z,1013.53
2023-05-09T03:48:36.730Z,1013.53
2023-05-09T03:50:36.322Z,1013.49
2023-05-09T03:52:36.871Z,1013.49
2023-05-09T03:54:36.414Z,1013.42
2023-05-09T03:56:36.045Z,1013.42
2023-05-09T03:58:36.725Z,1013.41
2023-05-09T04:00:42.351Z,1013.41
2023-05-09T04:02:37.144Z,1013.37
2023-05-09T04:04:36.765Z,1013.37
2023-05-09T04:06:35.907Z,1013.38
2023-05-09T04:08:36.382Z,1013.38
2023-05-09T04:10:36.225Z,1013.28
2023-05-09T04:12:36.724Z,1013.28
2023-05-09T04:14:36.374Z,1013.23
2023-05-09T04:16:36.826Z,1013.18
2023-05-09T04:18:36.321Z,1013.18
2023-05-09T04:20:36.177Z,1013.19
2023-05-09T04:22:36.433Z,1013.19
2023-05-09T04:24:36.019Z,1013.2
2023-05-09T04:26:36.536Z,1013.2
2023-05-09T04:28:36.120Z,1013.2
2023-05-09T04:30:36.923Z,1013.2
2023-05-09T04:32:37.001Z,1013.19
2023-05-09T04:34:36.022Z,1013.19
2023-05-09T04:36:36.580Z,1013.24
2023-05-09T04:38:36.215Z,1013.24
2023-05-09T04:40:38.675Z,1013.21
2023-05-09T04:42:36.451Z,1013.21
2023-05-09T04:44:35.898Z,1013.19
2023-05-09T04:46:37.570Z,1013.19
2023-05-09T04:48:36.335Z,1013.09
2023-05-09T04:50:37.088Z,1013.09
2023-05-09T04:52:36.512Z,1013.02
2023-05-09T04:54:36.147Z,1013.02
2023-05-09T04:56:36.768Z,1012.97
2023-05-09T04:58:36.419Z,1012.97
2023-05-09T05:00:39.976Z,1012.98
2023-05-09T05:02:36.117Z,1012.98
2023-05-09T05:04:36.700Z,1012.9
2023-05-09T05:08:36.692Z,1012.82
2023-05-09T05:10:36.258Z,1012.82
2023-05-09T05:12:39.575Z,1012.86
2023-05-09T05:14:36.346Z,1012.86
2023-05-09T05:16:37.343Z,1012.74
2023-05-09T05:18:36.683Z,1012.74
2023-05-09T05:20:37.133Z,1012.72
2023-05-09T05:22:36.529Z,1012.72
2023-05-09T05:24:36.261Z,1012.59
2023-05-09T05:26:36.611Z,1012.59
2023-05-09T05:28:36.107Z,1012.58
2023-05-09T05:30:36.805Z,1012.58
2023-05-09T05:32:36.280Z,1012.55
2023-05-09T05:34:36.048Z,1012.55
2023-05-09T05:36:36.549Z,1012.5
2023-05-09T05:38:36.121Z,1012.5
2023-05-09T05:40:36.734Z,1012.49
2023-05-09T05:42:36.363Z,1012.49
2023-05-09T05:44:35.939Z,1012.5
2023-05-09T05:46:36.723Z,1012.5
2023-05-09T05:48:36.152Z,1012.49
2023-05-09T05:50:36.680Z,1012.49
2023-05-09T05:52:36.333Z,1012.46
2023-05-09T05:54:36.896Z,1012.46
2023-05-09T05:56:36.328Z,1012.37
2023-05-09T05:58:35.891Z,1012.37
2023-05-09T06:00:40.145Z,1012.38
2023-05-09T06:02:36.378Z,1012.38
2023-05-09T06:04:37.035Z,1012.43
2023-05-09T06:06:36.430Z,1012.43
2023-05-09T06:08:36.020Z,1012.33
2023-05-09T06:10:36.884Z,1012.33
2023-05-09T06:12:39.589Z,1012.33
2023-05-09T06:14:36.914Z,1012.33
2023-05-09T06:16:53.067Z,1012.33
2023-05-09T06:18:36.355Z,1012.33
2023-05-09T06:20:36.887Z,1012.21
2023-05-09T06:22:36.438Z,1012.21
2023-05-09T06:24:59.293Z,1012.21
2023-05-09T06:26:36.712Z,1012.21
2023-05-09T06:28:36.199Z,1012.16
2023-05-09T06:30:50.326Z,1012.16
2023-05-09T06:34:36.220Z,1012.17
2023-05-09T06:36:36.509Z,1012.07
2023-05-09T06:38:36.250Z,1012.07
2023-05-09T06:40:36.868Z,1012.08
2023-05-09T06:42:36.366Z,1012.08
2023-05-09T06:44:36.905Z,1011.97
2023-05-09T06:46:36.551Z,1011.97
2023-05-09T06:48:36.022Z,1012.03
2023-05-09T06:50:36.545Z,1012.03
2023-05-09T06:52:35.886Z,1011.95
2023-05-09T06:54:36.441Z,1011.95
2023-05-09T06:56:36.207Z,1011.87
2023-05-09T06:58:36.575Z,1011.87
2023-05-09T07:00:43.133Z,1011.84
2023-05-09T07:02:36.385Z,1011.84
2023-05-09T07:04:36.483Z,1011.77
2023-05-09T07:06:35.963Z,1011.77
2023-05-09T07:08:36.511Z,1011.73
2023-05-09T07:10:39.514Z,1011.73
2023-05-09T07:12:36.817Z,1011.72
2023-05-09T07:14:36.477Z,1011.72
2023-05-09T07:18:37.011Z,1011.63
2023-05-09T07:20:36.780Z,1011.56
2023-05-09T07:22:37.417Z,1011.56
2023-05-09T07:24:36.751Z,1011.37
2023-05-09T07:26:36.184Z,1011.37
2023-05-09T07:28:36.820Z,1011.35
2023-05-09T07:30:37.352Z,1011.35
2023-05-09T07:32:36.325Z,1011.38
2023-05-09T07:34:37.111Z,1011.38
2023-05-09T07:38:36.364Z,1011.34
2023-05-09T07:40:36.971Z,1011.23
2023-05-09T07:42:36.731Z,1011.23
2023-05-09T07:44:36.376Z,1011.23
2023-05-09T07:46:36.452Z,1011.08
2023-05-09T07:48:36.592Z,1011.08
2023-05-09T07:50:36.447Z,1011.02
2023-05-09T07:52:36.827Z,1011.02
2023-05-09T07:54:36.273Z,1010.98
2023-05-09T07:56:36.922Z,1010.98
2023-05-09T07:58:36.401Z,1010.95
2023-05-09T08:00:36.162Z,1010.95
2023-05-09T08:02:37.016Z,1010.89
2023-05-09T08:04:36.729Z,1010.89
2023-05-09T08:06:36.741Z,1010.84
2023-05-09T08:08:37.699Z,1010.84
2023-05-09T08:10:36.894Z,1010.79
2023-05-09T08:12:36.383Z,1010.79
2023-05-09T08:14:38.746Z,1010.76
2023-05-09T08:16:36.859Z,1010.76
2023-05-09T08:18:36.446Z,1010.66
2023-05-09T08:20:37.025Z,1010.66
2023-05-09T08:22:36.436Z,1010.66
2023-05-09T08:24:35.983Z,1010.66
2023-05-09T08:26:36.552Z,1010.64
2023-05-09T08:28:36.501Z,1010.64
2023-05-09T08:30:36.963Z,1010.57
2023-05-09T08:32:36.567Z,1010.57
2023-05-09T08:34:36.232Z,1010.51
2023-05-09T08:36:35.953Z,1010.51
2023-05-09T08:38:36.393Z,1010.48
2023-05-09T08:40:36.664Z,1010.48
2023-05-09T08:42:38.247Z,1010.41
2023-05-09T08:44:36.291Z,1010.41
2023-05-09T08:46:37.058Z,1010.44
2023-05-09T08:48:36.455Z,1010.44
2023-05-09T08:50:36.799Z,1010.39
2023-05-09T08:52:36.610Z,1010.39
2023-05-09T08:54:36.370Z,1010.43
2023-05-09T08:56:36.814Z,1010.43
2023-05-09T08:58:36.376Z,1010.41
2023-05-09T09:00:43.484Z,1010.41
2023-05-09T09:02:36.752Z,1010.34
2023-05-09T09:04:36.315Z,1010.34
2023-05-09T09:06:36.511Z,1010.31
2023-05-09T09:08:36.337Z,1010.31
2023-05-09T09:10:36.407Z,1010.23
2023-05-09T09:12:36.578Z,1010.23
2023-05-09T09:14:36.318Z,1010.21
2023-05-09T09:16:37.118Z,1010.21
2023-05-09T09:18:36.352Z,1010.24
2023-05-09T09:20:37.261Z,1010.24
2023-05-09T09:22:36.478Z,1010.19
2023-05-09T09:24:36.004Z,1010.19
2023-05-09T09:26:36.587Z,1010.12
2023-05-09T09:28:36.008Z,1010.12
2023-05-09T09:30:37.364Z,1010.22
2023-05-09T09:32:36.696Z,1010.22
2023-05-09T09:34:35.932Z,1010.08
2023-05-09T09:36:36.611Z,1010.08
2023-05-09T09:38:36.103Z,1010.11
2023-05-09T09:40:37.408Z,1010.11
2023-05-09T09:42:36.175Z,1010.03
2023-05-09T09:44:36.846Z,1010.03
2023-05-09T09:46:36.716Z,1010.06
2023-05-09T09:48:36.227Z,1010.06
2023-05-09T09:50:37.388Z,1010.04
2023-05-09T09:52:36.135Z,1010.04
2023-05-09T09:54:36.650Z,1010.01
2023-05-09T09:56:36.170Z,1010.01
2023-05-09T09:58:36.767Z,1009.97
2023-05-09T10:00:42.993Z,1009.97
2023-05-09T10:02:41.493Z,1010
2023-05-09T10:04:37.054Z,1010
2023-05-09T10:06:36.413Z,1009.92
2023-05-09T10:08:36.625Z,1009.92
2023-05-09T10:10:37.121Z,1009.88
2023-05-09T10:12:36.844Z,1009.88
2023-05-09T10:14:36.416Z,1009.9
2023-05-09T10:16:54.561Z,1009.9
2023-05-09T10:18:37.500Z,1009.83
2023-05-09T10:20:37.433Z,1009.83
2023-05-09T10:22:36.554Z,1009.84
2023-05-09T10:24:36.162Z,1009.84
2023-05-09T10:26:36.699Z,1009.72
2023-05-09T10:28:36.296Z,1009.72
2023-05-09T10:30:36.914Z,1009.84
2023-05-09T10:32:36.578Z,1009.84
2023-05-09T10:34:36.300Z,1009.74
2023-05-09T10:36:36.801Z,1009.74
2023-05-09T10:38:36.326Z,1009.65
2023-05-09T10:40:36.931Z,1009.65
2023-05-09T10:42:36.593Z,1009.55
2023-05-09T10:44:35.966Z,1009.55
2023-05-09T10:46:36.746Z,1009.48
2023-05-09T10:48:36.190Z,1009.48
2023-05-09T10:50:36.689Z,1009.49
2023-05-09T10:52:36.340Z,1009.49
2023-05-09T10:54:36.875Z,1009.42
2023-05-09T10:56:36.469Z,1009.42
2023-05-09T10:58:35.933Z,1009.43
2023-05-09T11:00:42.435Z,1009.47
2023-05-09T11:02:36.728Z,1009.47
2023-05-09T11:04:36.228Z,1009.37
2023-05-09T11:06:36.983Z,1009.37
2023-05-09T11:08:36.319Z,1009.42
2023-05-09T11:10:36.976Z,1009.42
2023-05-09T11:12:36.565Z,1009.33
2023-05-09T11:14:36.060Z,1009.33
2023-05-09T11:16:36.903Z,1009.28
2023-05-09T11:18:36.145Z,1009.28
2023-05-09T11:20:36.870Z,1009.24
2023-05-09T11:22:36.160Z,1009.24
2023-05-09T11:24:36.880Z,1009.11
2023-05-09T11:26:36.086Z,1009.11
2023-05-09T11:28:36.750Z,1009.15
2023-05-09T11:30:36.243Z,1009.15
2023-05-09T11:32:37.187Z,1009.13
2023-05-09T11:34:36.346Z,1009.13
2023-05-09T11:36:36.017Z,1009.13
2023-05-09T11:38:36.669Z,1009.13
2023-05-09T11:40:36.662Z,1009.14
2023-05-09T11:42:35.995Z,1009.14
2023-05-09T11:44:36.679Z,1008.94
2023-05-09T11:46:36.748Z,1008.94
2023-05-09T11:48:36.222Z,1008.91
2023-05-09T11:50:37.079Z,1008.91
2023-05-09T11:52:36.563Z,1008.83
2023-05-09T11:54:36.748Z,1008.83
2023-05-09T11:56:36.233Z,1008.85
2023-05-09T11:58:36.800Z,1008.85
2023-05-09T12:00:42.417Z,1008.87
2023-05-09T12:02:36.937Z,1008.87
2023-05-09T12:04:36.724Z,1008.75
2023-05-09T12:06:36.604Z,1008.75
2023-05-09T12:08:36.337Z,1008.8
2023-05-09T12:10:37.039Z,1008.8
2023-05-09T12:12:36.514Z,1008.79
2023-05-09T12:14:36.858Z,1008.79
2023-05-09T12:16:36.754Z,1008.76
2023-05-09T12:18:36.212Z,1008.76
2023-05-09T12:20:36.993Z,1008.72
2023-05-09T12:22:36.320Z,1008.72
2023-05-09T12:24:35.890Z,1008.73
2023-05-09T12:26:36.622Z,1008.73
2023-05-09T12:28:36.094Z,1008.76
2023-05-09T12:30:36.954Z,1008.76
2023-05-09T12:32:36.363Z,1008.75
2023-05-09T12:34:35.993Z,1008.75
2023-05-09T12:36:36.837Z,1008.65
2023-05-09T12:38:36.166Z,1008.65
2023-05-09T12:40:37.010Z,1008.64
2023-05-09T12:44:36.819Z,1008.56
2023-05-09T12:46:37.631Z,1008.56
2023-05-09T12:48:36.047Z,1008.67
2023-05-09T12:50:36.791Z,1008.67
2023-05-09T12:52:46.942Z,1008.55
2023-05-09T12:54:36.637Z,1008.55
2023-05-09T12:56:36.245Z,1008.51
2023-05-09T12:58:36.826Z,1008.51
2023-05-09T13:00:39.766Z,1008.51
2023-05-09T13:02:36.410Z,1008.51
2023-05-09T13:04:36.216Z,1008.45
2023-05-09T13:06:36.695Z,1008.45
2023-05-09T13:08:36.053Z,1008.43
2023-05-09T13:10:36.852Z,1008.43
2023-05-09T13:12:36.247Z,1008.45
2023-05-09T13:14:36.763Z,1008.45
2023-05-09T13:16:39.794Z,1008.51
2023-05-09T13:18:36.502Z,1008.51
2023-05-09T13:20:36.994Z,1008.41
2023-05-09T13:22:36.975Z,1008.41
2023-05-09T13:24:36.639Z,1008.45
2023-05-09T13:26:36.069Z,1008.45
2023-05-09T13:28:38.133Z,1008.42
2023-05-09T13:30:37.081Z,1008.42
2023-05-09T13:32:36.882Z,1008.3
2023-05-09T13:36:36.840Z,1008.31
2023-05-09T13:38:36.287Z,1008.31
2023-05-09T13:40:37.429Z,1008.37
2023-05-09T13:42:36.397Z,1008.37
2023-05-09T13:44:36.008Z,1008.24
2023-05-09T13:46:36.699Z,1008.24
2023-05-09T13:48:36.975Z,1008.31
2023-05-09T13:50:37.462Z,1008.31
2023-05-09T13:52:36.488Z,1008.19
2023-05-09T13:54:36.024Z,1008.19
2023-05-09T13:56:36.571Z,1008.24
2023-05-09T13:58:36.097Z,1008.24
2023-05-09T14:00:39.107Z,1008.27
2023-05-09T14:02:36.645Z,1008.27
2023-05-09T14:04:36.258Z,1008.27
2023-05-09T14:06:38.517Z,1008.27
2023-05-09T14:08:36.268Z,1008.17
2023-05-09T14:10:40.582Z,1008.17
2023-05-09T14:12:36.465Z,1008.18
2023-05-09T14:14:36.028Z,1008.18
2023-05-09T14:16:36.838Z,1008.07
2023-05-09T14:18:42.274Z,1008.17
2023-05-09T14:20:37.598Z,1008.17
2023-05-09T14:22:36.505Z,1008.12
2023-05-09T14:24:39.154Z,1008.12
2023-05-09T14:26:36.769Z,1008.01
2023-05-09T14:28:36.266Z,1008.01
2023-05-09T14:30:37.532Z,1008
2023-05-09T14:32:36.536Z,1008
2023-05-09T14:34:36.325Z,1007.93
2023-05-09T14:36:36.854Z,1007.93
2023-05-09T14:38:36.547Z,1007.88
2023-05-09T14:40:36.665Z,1007.88
2023-05-09T14:42:36.799Z,1007.85
2023-05-09T14:44:36.417Z,1007.85
2023-05-09T14:46:36.353Z,1007.82
2023-05-09T14:48:39.097Z,1007.82
2023-05-09T14:50:36.135Z,1007.84
2023-05-09T14:52:36.608Z,1007.84
2023-05-09T14:54:39.115Z,1007.73
2023-05-09T14:56:36.889Z,1007.73
2023-05-09T14:58:36.577Z,1007.82
2023-05-09T15:00:56.187Z,1007.82
2023-05-09T15:04:36.588Z,1007.77
2023-05-09T15:06:38.593Z,1007.72
2023-05-09T15:08:36.344Z,1007.72
2023-05-09T15:10:36.419Z,1007.7
2023-05-09T15:12:36.644Z,1007.7
2023-05-09T15:14:36.259Z,1007.67
2023-05-09T15:16:36.927Z,1007.67
2023-05-09T15:18:36.404Z,1007.66
2023-05-09T15:20:36.617Z,1007.66
2023-05-09T15:22:36.758Z,1007.62
2023-05-09T15:24:36.032Z,1007.62
2023-05-09T15:26:36.592Z,1007.64
2023-05-09T15:28:36.127Z,1007.64
2023-05-09T15:30:38.491Z,1007.7
2023-05-09T15:32:36.136Z,1007.7
2023-05-09T15:34:36.772Z,1007.76
2023-05-09T15:36:36.079Z,1007.76
2023-05-09T15:38:36.650Z,1007.74
2023-05-09T15:40:36.737Z,1007.74
2023-05-09T15:42:35.966Z,1007.8
2023-05-09T15:44:36.457Z,1007.8
2023-05-09T15:46:36.536Z,1007.75
2023-05-09T15:48:36.681Z,1007.75
2023-05-09T15:50:36.987Z,1007.67
2023-05-09T15:52:36.051Z,1007.67
2023-05-09T15:54:36.696Z,1007.66
2023-05-09T15:56:36.334Z,1007.66
2023-05-09T15:58:36.807Z,1007.79
2023-05-09T16:00:41.548Z,1007.79
2023-05-09T16:02:36.224Z,1007.64
2023-05-09T16:04:36.854Z,1007.64
2023-05-09T16:06:36.071Z,1007.65
2023-05-09T16:08:36.508Z,1007.65
2023-05-09T16:10:36.924Z,1007.67
2023-05-09T16:12:36.542Z,1007.67
2023-05-09T16:14:36.595Z,1007.7
2023-05-09T16:16:36.985Z,1007.7
2023-05-09T16:18:36.249Z,1007.62
2023-05-09T16:20:37.409Z,1007.62
2023-05-09T16:22:36.458Z,1007.64
2023-05-09T16:24:35.993Z,1007.64
2023-05-09T16:26:36.573Z,1007.51
2023-05-09T16:28:36.066Z,1007.51
2023-05-09T16:30:37.235Z,1007.56
2023-05-09T16:32:36.425Z,1007.56
2023-05-09T16:34:36.685Z,1007.59
2023-05-09T16:36:36.472Z,1007.59
2023-05-09T16:38:35.926Z,1007.49
2023-05-09T16:40:37.017Z,1007.49
2023-05-09T16:42:36.244Z,1007.51
2023-05-09T16:44:36.632Z,1007.51
2023-05-09T16:46:36.497Z,1007.59
2023-05-09T16:48:37.275Z,1007.59
2023-05-09T16:50:36.847Z,1007.52
2023-05-09T16:52:35.947Z,1007.52
2023-05-09T16:54:36.449Z,1007.42
2023-05-09T16:56:36.101Z,1007.42
2023-05-09T16:58:36.863Z,1007.42
2023-05-09T17:00:41.359Z,1007.42
2023-05-09T17:02:36.636Z,1007.28
2023-05-09T17:04:37.909Z,1007.28
2023-05-09T17:06:36.488Z,1007.29
2023-05-09T17:08:36.894Z,1007.29
2023-05-09T17:10:37.801Z,1007.32
2023-05-09T17:12:36.188Z,1007.32
2023-05-09T17:14:37.019Z,1007.35
2023-05-09T17:16:38.131Z,1007.35
2023-05-09T17:18:49.956Z,1007.38
2023-05-09T17:20:37.202Z,1007.38
2023-05-09T17:22:37.207Z,1007.42
2023-05-09T17:24:36.308Z,1007.42
2023-05-09T17:26:36.072Z,1007.34
2023-05-09T17:28:36.468Z,1007.34
2023-05-09T17:30:36.524Z,1007.33
2023-05-09T17:32:37.080Z,1007.33
2023-05-09T17:34:36.432Z,1007.25
2023-05-09T17:36:36.001Z,1007.25
2023-05-09T17:38:36.628Z,1007.42
2023-05-09T17:40:37.028Z,1007.35
2023-05-09T17:42:35.939Z,1007.35
2023-05-09T17:44:36.498Z,1007.29
2023-05-09T17:46:36.620Z,1007.29
2023-05-09T17:48:36.905Z,1007.21
2023-05-09T17:50:36.772Z,1007.21
2023-05-09T17:52:36.648Z,1007.24
2023-05-09T17:54:36.259Z,1007.24
2023-05-09T17:56:36.745Z,1007.33
2023-05-09T17:58:36.286Z,1007.33
2023-05-09T18:00:42.726Z,1007.37
2023-05-09T18:02:36.780Z,1007.37
2023-05-09T18:04:36.052Z,1007.38
2023-05-09T18:06:36.480Z,1007.38
2023-05-09T18:08:36.204Z,1007.41
2023-05-09T18:10:37.021Z,1007.41
2023-05-09T18:12:37.212Z,1007.44
2023-05-09T18:14:36.621Z,1007.44
2023-05-09T18:16:36.496Z,1007.41
2023-05-09T18:18:38.047Z,1007.41
2023-05-09T18:20:36.758Z,1007.56
2023-05-09T18:22:35.969Z,1007.56
2023-05-09T18:24:39.851Z,1007.43
2023-05-09T18:26:36.187Z,1007.43
2023-05-09T18:28:36.935Z,1007.42
2023-05-09T18:30:36.956Z,1007.42
2023-05-09T18:32:36.160Z,1007.38
2023-05-09T18:34:36.611Z,1007.38
2023-05-09T18:36:36.260Z,1007.46
2023-05-09T18:38:35.908Z,1007.46
2023-05-09T18:40:37.232Z,1007.35
2023-05-09T18:42:39.172Z,1007.35
2023-05-09T18:44:36.566Z,1007.45
2023-05-09T18:46:36.215Z,1007.45
2023-05-09T18:48:36.931Z,1007.49
2023-05-09T18:50:38.151Z,1007.49
2023-05-09T18:52:36.200Z,1007.49
2023-05-09T18:54:37.188Z,1007.49
2023-05-09T18:56:37.691Z,1007.45
2023-05-09T18:58:36.199Z,1007.45
2023-05-09T19:00:39.583Z,1007.4
2023-05-09T19:02:36.707Z,1007.4
2023-05-09T19:04:36.600Z,1007.38
2023-05-09T19:06:36.768Z,1007.38
2023-05-09T19:08:36.143Z,1007.42
2023-05-09T19:10:36.630Z,1007.42
2023-05-09T19:12:36.837Z,1007.47
2023-05-09T19:14:36.943Z,1007.47
2023-05-09T19:16:36.555Z,1007.52
2023-05-09T19:18:36.873Z,1007.52
2023-05-09T19:20:48.636Z,1007.61
2023-05-09T19:22:36.061Z,1007.61
2023-05-09T19:24:36.599Z,1007.59
2023-05-09T19:26:36.262Z,1007.59
2023-05-09T19:28:36.832Z,1007.64
2023-05-09T19:30:36.577Z,1007.64
2023-05-09T19:32:36.126Z,1007.56
2023-05-09T19:34:36.750Z,1007.56
2023-05-09T19:36:36.264Z,1007.61
2023-05-09T19:38:36.949Z,1007.61
2023-05-09T19:40:37.176Z,1007.58
2023-05-09T19:42:36.118Z,1007.58
2023-05-09T19:44:36.733Z,1007.68
2023-05-09T19:46:36.949Z,1007.68
2023-05-09T19:48:36.250Z,1007.68
2023-05-09T19:50:37.622Z,1007.68
2023-05-09T19:52:36.379Z,1007.71
2023-05-09T19:54:36.099Z,1007.71
2023-05-09T19:56:36.852Z,1007.61
2023-05-09T19:58:38.594Z,1007.61
2023-05-09T20:00:42.337Z,1007.62
2023-05-09T20:02:36.347Z,1007.62
2023-05-09T20:04:36.798Z,1007.75
2023-05-09T20:08:36.959Z,1007.67
2023-05-09T20:10:37.474Z,1007.67
2023-05-09T20:12:36.318Z,1007.65
2023-05-09T20:14:35.992Z,1007.65
2023-05-09T20:16:37.002Z,1007.68
2023-05-09T20:18:36.193Z,1007.68
2023-05-09T20:20:37.380Z,1007.67
2023-05-09T20:22:36.326Z,1007.67
2023-05-09T20:24:35.897Z,1007.79
2023-05-09T20:26:36.864Z,1007.79
2023-05-09T20:28:36.141Z,1007.81
2023-05-09T20:30:37.353Z,1007.81
2023-05-09T20:32:36.313Z,1007.72
2023-05-09T20:34:36.638Z,1007.72
2023-05-09T20:36:36.646Z,1007.78
2023-05-09T20:38:36.266Z,1007.78
2023-05-09T20:40:37.597Z,1007.82
2023-05-09T20:42:36.843Z,1007.82
2023-05-09T20:44:36.226Z,1007.68
2023-05-09T20:46:36.329Z,1007.68
2023-05-09T20:48:36.656Z,1007.7
2023-05-09T20:50:37.433Z,1007.7
2023-05-09T20:52:35.916Z,1007.69
2023-05-09T20:54:36.483Z,1007.69
2023-05-09T20:56:36.001Z,1007.76
2023-05-09T20:58:36.449Z,1007.76
2023-05-09T21:00:40.304Z,1007.63
2023-05-09T21:02:36.775Z,1007.7
2023-05-09T21:04:36.111Z,1007.7
2023-05-09T21:06:36.687Z,1007.77
2023-05-09T21:08:36.126Z,1007.77
2023-05-09T21:10:37.025Z,1007.77
2023-05-09T21:12:36.218Z,1007.77
2023-05-09T21:14:36.878Z,1007.65
2023-05-09T21:16:36.652Z,1007.65
2023-05-09T21:18:36.325Z,1007.61
2023-05-09T21:20:37.458Z,1007.61
2023-05-09T21:22:36.325Z,1007.5
2023-05-09T21:24:36.029Z,1007.5
2023-05-09T21:26:36.633Z,1007.47
2023-05-09T21:28:36.105Z,1007.47
2023-05-09T21:30:37.451Z,1007.56
2023-05-09T21:32:36.457Z,1007.56
2023-05-09T21:34:36.098Z,1007.45
2023-05-09T21:36:36.620Z,1007.45
2023-05-09T21:38:36.228Z,1007.4
2023-05-09T21:40:40.645Z,1007.4
2023-05-09T21:42:36.412Z,1007.43
2023-05-09T21:44:36.031Z,1007.43
2023-05-09T21:46:37.025Z,1007.24
2023-05-09T21:48:36.625Z,1007.24
2023-05-09T21:50:36.157Z,1007.21
2023-05-09T21:52:36.487Z,1007.21
2023-05-09T21:54:36.130Z,1007.23
2023-05-09T21:56:36.554Z,1007.23
2023-05-09T21:58:36.079Z,1007.25
2023-05-09T22:00:40.765Z,1007.25
2023-05-09T22:02:36.393Z,1007.23
2023-05-09T22:04:36.737Z,1007.23
2023-05-09T22:06:36.757Z,1007.18
2023-05-09T22:08:36.412Z,1007.18
2023-05-09T22:10:36.709Z,1007.22
2023-05-09T22:12:35.770Z,1007.22
2023-05-09T22:14:41.996Z,1007.3
2023-05-09T22:16:36.295Z,1007.3
2023-05-09T22:18:36.742Z,1007.3
2023-05-09T22:20:36.588Z,1007.3
2023-05-09T22:22:36.814Z,1007.33
2023-05-09T22:24:36.491Z,1007.33
2023-05-09T22:26:36.224Z,1007.3
2023-05-09T22:28:36.708Z,1007.3
2023-05-09T22:30:36.907Z,1007.18
2023-05-09T22:32:36.298Z,1007.18
2023-05-09T22:34:36.702Z,1007.18
2023-05-09T22:36:36.340Z,1007.18
2023-05-09T22:38:35.990Z,1007.26
2023-05-09T22:40:37.250Z,1007.26
2023-05-09T22:42:36.249Z,1007.08
2023-05-09T22:44:35.907Z,1007.08
2023-05-09T22:46:36.863Z,1007.14
2023-05-09T22:48:36.282Z,1007.14
2023-05-09T22:50:37.105Z,1007.25
2023-05-09T22:52:36.197Z,1007.25
2023-05-09T22:54:36.759Z,1007.08
2023-05-09T22:56:36.302Z,1007.08
2023-05-09T22:58:36.892Z,1007.19
2023-05-09T23:00:39.617Z,1007.19
2023-05-09T23:02:36.540Z,1007.12
2023-05-09T23:04:36.019Z,1007.12
2023-05-09T23:06:36.842Z,1007.13
2023-05-09T23:08:36.473Z,1007.13
2023-05-09T23:10:36.356Z,1007.29
2023-05-09T23:12:36.674Z,1007.29
2023-05-09T23:14:36.289Z,1007.27
2023-05-09T23:16:37.236Z,1007.27
2023-05-09T23:18:36.511Z,1007.32
2023-05-09T23:20:36.516Z,1007.32
2023-05-09T23:22:36.901Z,1007.21
2023-05-09T23:24:36.421Z,1007.21
2023-05-09T23:26:36.897Z,1007.27
2023-05-09T23:28:36.726Z,1007.27
2023-05-09T23:30:37.339Z,1007.09
2023-05-09T23:32:36.361Z,1007.09
2023-05-09T23:34:36.865Z,1007.2
2023-05-09T23:36:36.532Z,1007.2
2023-05-09T23:38:36.078Z,1007.11
2023-05-09T23:40:37.136Z,1007.11
2023-05-09T23:42:36.120Z,1007.1
2023-05-09T23:44:36.921Z,1007.1
2023-05-09T23:46:37.263Z,1007.01
2023-05-09T23:48:36.041Z,1007.01
2023-05-09T23:50:37.123Z,1007.03
2023-05-09T23:52:36.109Z,1007.03
2023-05-09T23:54:36.748Z,1007.06
2023-05-09T23:56:36.222Z,1007.06
2023-05-09T23:58:36.802Z,1007.11
